Time;durP1;ratioP1;P1;durP2;ratioP2;P2;SDS_P1;SDS_P2;PMS_P1;PMS_P2;Temp;Humidity;BMP_temperature;BMP_pressure;BME280_temperature;BME280_humidity;BME280_pressure;Samples;Min_cycle;Max_cycle;Signal;HPM_P1;HPM_P2
2023/03/19 00:00:17;;;;;;;;;;;;;;;;;;5011923;28;19921;-62
2023/03/19 00:02:48;;;;;;;;;;;;;;;;;;5011127;28;20424;-62
2023/03/19 00:05:15;;;;;;;;;;;;;;;;;;5012262;28;19983;-61
2023/03/19 00:07:42;;;;;;;;;;;;;;;;;;5012576;28;19976;-61
2023/03/19 00:10:09;;;;;;;;;;;;;;;;;;5010772;28;20443;-62
2023/03/19 00:12:36;;;;;;;;;;;;;;;;;;5013395;28;19928;-62
2023/03/19 00:15:03;;;;;;;;;;;;;;;;;;5013340;28;19929;-62
2023/03/19 00:17:30;;;;;;;;;;;;;;;;;;5013842;28;19961;-62
2023/03/19 00:19:57;;;;;;;;;;;;;;;;;;5013273;28;19922;-62
2023/03/19 00:22:24;;;;;;;;;;;;;;;;;;5013667;28;20551;-61
2023/03/19 00:24:52;;;;;;;;;;;;;;;;;;5013829;28;20476;-61
2023/03/19 00:27:19;;;;;;;;;;;;;;;;;;5013180;28;19943;-61
2023/03/19 00:29:46;;;;;;;;;;;;;;;;;;5013199;28;19987;-62
2023/03/19 00:32:13;;;;;;;;;;;;;;;;;;5012254;28;19958;-62
2023/03/19 00:34:40;;;;;;;;;;;;;;;;;;5010797;28;20019;-62
2023/03/19 00:37:07;;;;;;;;;;;;;;;;;;5013598;28;19939;-63
2023/03/19 00:39:34;;;;;;;;;;;;;;;;;;5010389;28;19961;-63
2023/03/19 00:42:01;;;;;;;;;;;;;;;;;;5010147;28;19921;-63
2023/03/19 00:44:28;;;;;;;;;;;;;;;;;;4993588;28;19921;-63
2023/03/19 00:46:57;;;;;;;1999.90;999.90;;;;;;;;;;4993059;28;19932;-63
2023/03/19 00:49:24;;;;;;;;;;;;;;;;;;5008638;28;20438;-63
2023/03/19 00:51:50;;;;;;;;;;;;;;;;;;5009973;28;19921;-63
2023/03/19 00:54:17;;;;;;;;;;;;;;;;;;5011524;28;20294;-63
2023/03/19 00:56:44;;;;;;;;;;;;;;;;;;5012844;28;20445;-63
2023/03/19 00:59:11;;;;;;;;;;;;;;;;;;5011325;28;19948;-63
2023/03/19 01:01:38;;;;;;;;;;;;;;;;;;5012412;28;19929;-63
2023/03/19 01:04:05;;;;;;;;;;;;;;;;;;5010755;28;19926;-63
2023/03/19 01:06:32;;;;;;;;;;;;;;;;;;5011647;28;19925;-63
2023/03/19 01:08:59;;;;;;;;;;;;;;;;;;5011525;28;20291;-63
2023/03/19 01:11:26;;;;;;;;;;;;;;;;;;5009924;28;19925;-63
2023/03/19 01:13:53;;;;;;;;;;;;;;;;;;5009042;28;19945;-63
2023/03/19 01:16:20;;;;;;;;;;;;;;;;;;5010437;28;19926;-63
2023/03/19 01:18:46;;;;;;;;;;;;;;;;;;5011025;28;20011;-63
2023/03/19 01:21:13;;;;;;;;;;;;;;;;;;5010194;28;19925;-63
2023/03/19 01:23:40;;;;;;;;;;;;;;;;;;5012289;28;20316;-63
2023/03/19 01:26:07;;;;;;;;;;;;;;;;;;5010608;28;19926;-63
2023/03/19 01:28:34;;;;;;;;;;;;;;;;;;5012313;28;19932;-63
2023/03/19 01:31:01;;;;;;;;;;;;;;;;;;5010465;28;19937;-63
2023/03/19 01:33:28;;;;;;;;;;;;;;;;;;5012639;28;19983;-63
2023/03/19 01:35:56;;;;;;;;;;;;;;;;;;5011532;28;19930;-63
2023/03/19 01:38:24;;;;;;;;;;;;;;;;;;5012518;28;20392;-61
2023/03/19 01:40:51;;;;;;;;;;;;;;;;;;5011399;28;19925;-61
2023/03/19 01:43:18;;;;;;;;;;;;;;;;;;5010184;28;19925;-61
2023/03/19 01:45:45;;;;;;;;;;;;;;;;;;5007491;28;20442;-61
2023/03/19 01:48:12;;;;;;;;;;;;;;;;;;5010106;28;19933;-61
2023/03/19 01:50:39;;;;;;;;;;;;;;;;;;5012116;28;19933;-62
2023/03/19 01:53:06;;;;;;;;;;;;;;;;;;5008756;28;19932;-61
2023/03/19 01:55:33;;;;;;;;;;;;;;;;;;5010629;28;19925;-61
2023/03/19 01:58:00;;;;;;;;;;;;;;;;;;5008641;28;19926;-62
2023/03/19 02:00:27;;;;;;;;;;;;;;;;;;5010608;28;20033;-62
2023/03/19 02:02:59;;;;;;;1999.90;999.90;;;;;;;;;;5005245;28;20475;-62
2023/03/19 02:05:27;;;;;;;1999.90;999.90;;;;;;;;;;5010135;28;20426;-61
2023/03/19 02:07:54;;;;;;;;;;;;;;;;;;5010903;28;20471;-61
2023/03/19 02:10:22;;;;;;;1999.90;999.90;;;;;;;;;;5011127;28;20413;-62
2023/03/19 02:12:49;;;;;;;;;;;;;;;;;;5009881;28;20432;-61
2023/03/19 02:15:16;;;;;;;;;;;;;;;;;;5012229;28;20328;-62
2023/03/19 02:17:43;;;;;;;;;;;;;;;;;;5007995;28;19926;-62
2023/03/19 02:20:10;;;;;;;;;;;;;;;;;;5012022;28;19925;-61
2023/03/19 02:22:37;;;;;;;;;;;;;;;;;;5008698;28;19929;-62
2023/03/19 02:25:05;;;;;;;;;;;;;;;;;;5010047;28;20306;-62
2023/03/19 02:27:32;;;;;;;;;;;;;;;;;;5011036;28;19925;-61
2023/03/19 02:30:00;;;;;;;1999.90;999.90;;;;;;;;;;5006049;28;20464;-62
2023/03/19 02:32:27;;;;;;;1999.90;999.90;;;;;;;;;;5008553;28;20491;-61
2023/03/19 02:34:54;;;;;;;;;;;;;;;;;;5010277;28;20204;-61
2023/03/19 02:37:21;;;;;;;;;;;;;;;;;;5007871;28;20075;-60
2023/03/19 02:39:48;;;;;;;;;;;;;;;;;;5010388;28;19921;-60
2023/03/19 02:42:15;;;;;;;;;;;;;;;;;;5010745;28;20073;-60
2023/03/19 02:44:42;;;;;;;;;;;;;;;;;;5012035;28;19996;-61
2023/03/19 02:47:09;;;;;;;;;;;;;;;;;;5011974;28;19921;-61
2023/03/19 02:49:36;;;;;;;;;;;;;;;;;;5009842;28;19926;-61
2023/03/19 02:52:02;;;;;;;;;;;;;;;;;;5011551;28;19966;-61
2023/03/19 02:54:31;;;;;;;1999.90;999.90;;;;;;;;;;5013942;28;20413;-61
2023/03/19 02:56:58;;;;;;;1999.90;999.90;;;;;;;;;;5015062;28;20207;-61
2023/03/19 02:59:25;;;;;;;1999.90;999.90;;;;;;;;;;5014506;28;20212;-61
2023/03/19 03:01:52;;;;;;;1999.90;999.90;;;;;;;;;;5013603;28;20270;-61
2023/03/19 03:04:19;;;;;;;1999.90;999.90;;;;;;;;;;5012107;28;20451;-61
2023/03/19 03:06:46;;;;;;;;;;;;;;;;;;5015099;28;20449;-61
2023/03/19 03:09:13;;;;;;;;;;;;;;;;;;5015267;28;19943;-61
2023/03/19 03:11:41;;;;;;;;;;;;;;;;;;5014811;28;19921;-61
2023/03/19 03:14:07;;;;;;;;;;;;;;;;;;5014642;28;20311;-61
2023/03/19 03:16:34;;;;;;;;;;;;;;;;;;5015083;28;19970;-61
2023/03/19 03:19:02;;;;;;;;;;;;;;;;;;5014154;28;19941;-61
2023/03/19 03:21:29;;;;;;;;;;;;;;;;;;5011894;28;20005;-61
2023/03/19 03:23:56;;;;;;;;;;;;;;;;;;5014415;28;20311;-62
2023/03/19 03:26:23;;;;;;;;;;;;;;;;;;5014953;28;19940;-62
2023/03/19 03:28:50;;;;;;;;;;;;;;;;;;5014575;28;19948;-61
2023/03/19 03:31:17;;;;;;;;;;;;;;;;;;5012757;28;19956;-61
2023/03/19 03:33:44;;;;;;;;;;;;;;;;;;5012296;28;19950;-62
2023/03/19 03:36:12;;;;;;;;;;;;;;;;;;5013124;28;19938;-62
2023/03/19 03:38:39;;;;;;;;;;;;;;;;;;5011305;28;19921;-62
2023/03/19 03:41:06;;;;;;;;;;;;;;;;;;5014212;28;19921;-61
2023/03/19 03:43:33;;;;;;;;;;;;;;;;;;5010261;28;19921;-62
2023/03/19 03:46:00;;;;;;;;;;;;;;;;;;5014401;28;19921;-61
2023/03/19 03:48:27;;;;;;;;;;;;;;;;;;5012493;28;19922;-61
2023/03/19 03:50:54;;;;;;;;;;;;;;;;;;5014050;28;19922;-61
2023/03/19 03:53:21;;;;;;;;;;;;;;;;;;5011172;28;19925;-61
2023/03/19 03:55:48;;;;;;;;;;;;;;;;;;5012069;28;19928;-62
2023/03/19 03:58:15;;;;;;;;;;;;;;;;;;5014373;28;19928;-61
2023/03/19 04:00:42;;;;;;;;;;;;;;;;;;5009924;28;19921;-61
2023/03/19 04:03:09;;;;;;;;;;;;;;;;;;5006169;28;19922;-61
2023/03/19 04:05:36;;;;;;;;;;;;;;;;;;5012993;28;20532;-61
2023/03/19 04:08:03;;;;;;;;;;;;;;;;;;5026928;28;19928;-61
2023/03/19 04:10:30;;;;;;;;;;;;;;;;;;5017422;28;20302;-61
2023/03/19 04:12:57;;;;;;;;;;;;;;;;;;5012637;28;19925;-61
2023/03/19 04:15:24;;;;;;;;;;;;;;;;;;5013087;28;20006;-61
2023/03/19 04:17:51;;;;;;;;;;;;;;;;;;5013404;28;20811;-61
2023/03/19 04:20:18;;;;;;;;;;;;;;;;;;5013734;28;19943;-61
2023/03/19 04:22:45;;;;;;;;;;;;;;;;;;5011858;28;19958;-61
2023/03/19 04:25:12;;;;;;;;;;;;;;;;;;5011569;28;19982;-61
2023/03/19 04:27:39;;;;;;;;;;;;;;;;;;5013338;28;19945;-61
2023/03/19 04:30:06;;;;;;;;;;;;;;;;;;5012966;28;19945;-61
2023/03/19 04:32:34;;;;;;;;;;;;;;;;;;5009539;28;19933;-61
2023/03/19 04:35:01;;;;;;;;;;;;;;;;;;5011214;28;20358;-61
2023/03/19 04:37:28;;;;;;;;;;;;;;;;;;5010470;28;20358;-61
2023/03/19 04:39:55;;;;;;;;;;;;;;;;;;5012973;28;19932;-61
2023/03/19 04:42:22;;;;;;;;;;;;;;;;;;5009042;28;20158;-61
2023/03/19 04:44:49;;;;;;;;;;;;;;;;;;5010988;28;20320;-61
2023/03/19 04:47:16;;;;;;;;;;;;;;;;;;5010685;28;19929;-61
2023/03/19 04:49:43;;;;;;;;;;;;;;;;;;5008163;28;20853;-61
2023/03/19 04:52:10;;;;;;;;;;;;;;;;;;5012460;28;19926;-61
2023/03/19 04:54:37;;;;;;;;;;;;;;;;;;5011309;28;19926;-61
2023/03/19 04:57:03;;;;;;;;;;;;;;;;;;5011358;28;19926;-61
2023/03/19 04:59:30;;;;;;;;;;;;;;;;;;5009781;28;19960;-61
2023/03/19 05:01:57;;;;;;;;;;;;;;;;;;5045666;22;19947;-63
2023/03/19 05:04:25;;;;;;;;;;;;;;;;;;5041951;28;19925;-63
2023/03/19 05:06:52;;;;;;;;;;;;;;;;;;5052563;28;19931;-63
2023/03/19 05:09:19;;;;;;;;;;;;;;;;;;5048971;28;19948;-63
2023/03/19 05:11:46;;;;;;;;;;;;;;;;;;5052092;28;20406;-63
2023/03/19 05:14:13;;;;;;;;;;;;;;;;;;5039755;28;19933;-63
2023/03/19 05:16:40;;;;;;;;;;;;;;;;;;5032331;28;19955;-63
2023/03/19 05:19:07;;;;;;;;;;;;;;;;;;5032638;28;20295;-63
2023/03/19 05:21:34;;;;;;;;;;;;;;;;;;5038155;28;19925;-63
2023/03/19 05:24:01;;;;;;;;;;;;;;;;;;5040995;28;20294;-63
2023/03/19 05:26:28;;;;;;;;;;;;;;;;;;5052344;28;19932;-63
2023/03/19 05:28:55;;;;;;;;;;;;;;;;;;5047729;28;19932;-63
2023/03/19 05:31:21;;;;;;;;;;;;;;;;;;5031935;28;19925;-63
2023/03/19 05:33:48;;;;;;;;;;;;;;;;;;5032435;28;20383;-63
2023/03/19 05:36:15;;;;;;;;;;;;;;;;;;5031226;28;19929;-63
2023/03/19 05:38:42;;;;;;;;;;;;;;;;;;5015085;28;20087;-63
2023/03/19 05:41:09;;;;;;;;;;;;;;;;;;5012205;28;20005;-63
2023/03/19 05:43:36;;;;;;;;;;;;;;;;;;5037985;28;20007;-63
2023/03/19 05:46:03;;;;;;;;;;;;;;;;;;5034392;28;19925;-63
2023/03/19 05:48:30;;;;;;;;;;;;;;;;;;5032200;28;20395;-63
2023/03/19 05:50:58;;;;;;;;;;;;;;;;;;5031803;28;19962;-63
2023/03/19 05:53:25;;;;;;;;;;;;;;;;;;5038285;28;20533;-63
2023/03/19 05:55:52;;;;;;;;;;;;;;;;;;5039821;28;19946;-63
2023/03/19 05:58:18;;;;;;;;;;;;;;;;;;5033962;28;20439;-63
2023/03/19 06:00:47;;;;;;;;;;;;;;;;;;5030744;28;20374;-63
2023/03/19 06:03:14;;;;;;;;;;;;;;;;;;5033015;28;19936;-63
2023/03/19 06:05:41;;;;;;;;;;;;;;;;;;5038876;28;19951;-63
2023/03/19 06:08:08;;;;;;;;;;;;;;;;;;5049967;28;20335;-63
2023/03/19 06:10:35;;;;;;;;;;;;;;;;;;5051667;28;19939;-63
2023/03/19 06:13:01;;;;;;;;;;;;;;;;;;5051094;28;20390;-63
2023/03/19 06:15:28;;;;;;;;;;;;;;;;;;5051884;28;19941;-64
2023/03/19 06:17:55;;;;;;;;;;;;;;;;;;5051204;28;20479;-64
2023/03/19 06:20:22;;;;;;;;;;;;;;;;;;5051827;28;20409;-64
2023/03/19 06:22:49;;;;;;;;;;;;;;;;;;5051508;28;19965;-64
2023/03/19 06:25:16;;;;;;;;;;;;;;;;;;5051935;28;19960;-64
2023/03/19 06:27:43;;;;;;;;;;;;;;;;;;5038344;28;19939;-64
2023/03/19 06:30:10;;;;;;;;;;;;;;;;;;5036038;28;20400;-64
2023/03/19 06:32:37;;;;;;;;;;;;;;;;;;5043335;28;19982;-64
2023/03/19 06:35:04;;;;;;;;;;;;;;;;;;5031986;28;19943;-64
2023/03/19 06:37:31;;;;;;;;;;;;;;;;;;5025007;28;19949;-64
2023/03/19 06:39:58;;;;;;;;;;;;;;;;;;5015825;28;19925;-64
2023/03/19 06:42:25;;;;;;;;;;;;;;;;;;5027819;28;19924;-63
2023/03/19 06:44:52;;;;;;;;;;;;;;;;;;5046922;28;20375;-63
2023/03/19 06:47:19;;;;;;;;;;;;;;;;;;5027319;28;19947;-63
2023/03/19 06:49:46;;;;;;;;;;;;;;;;;;5026896;28;19970;-63
2023/03/19 06:52:13;;;;;;;;;;;;;;;;;;5015129;28;20286;-63
2023/03/19 06:54:40;;;;;;;;;;;;;;;;;;5015366;28;19932;-63
2023/03/19 06:57:07;;;;;;;;;;;;;;;;;;5015316;28;19925;-63
2023/03/19 06:59:34;;;;;;;;;;;;;;;;;;5014905;28;19925;-63
2023/03/19 07:02:01;;;;;;;;;;;;;;;;;;5014827;28;19925;-63
2023/03/19 07:04:27;;;;;;;;;;;;;;;;;;5031308;28;19925;-63
2023/03/19 07:06:54;;;;;;;;;;;;;;;;;;5038287;28;19947;-63
2023/03/19 07:09:22;;;;;;;;;;;;;;;;;;5054928;28;20359;-63
2023/03/19 07:11:49;;;;;;;;;;;;;;;;;;5018359;28;19965;-63
2023/03/19 07:14:16;;;;;;;;;;;;;;;;;;5019032;28;19945;-62
2023/03/19 07:16:43;;;;;;;;;;;;;;;;;;5045478;28;20512;-63
2023/03/19 07:19:10;;;;;;;;;;;;;;;;;;5036257;28;19928;-63
2023/03/19 07:21:37;;;;;;;;;;;;;;;;;;5032303;28;20302;-63
2023/03/19 07:24:04;;;;;;;;;;;;;;;;;;5034758;28;19969;-63
2023/03/19 07:26:31;;;;;;;;;;;;;;;;;;5038420;28;19933;-63
2023/03/19 07:28:58;;;;;;;;;;;;;;;;;;5053749;28;20390;-63
2023/03/19 07:31:25;;;;;;;;;;;;;;;;;;5049451;28;19928;-63
2023/03/19 07:33:52;;;;;;;;;;;;;;;;;;5024662;28;20296;-63
2023/03/19 07:36:20;;;;;;;;;;;;;;;;;;5014666;28;19962;-63
2023/03/19 07:38:47;;;;;;;;;;;;;;;;;;5034152;28;19974;-63
2023/03/19 07:41:14;;;;;;;;;;;;;;;;;;5039873;28;19947;-64
2023/03/19 07:43:41;;;;;;;;;;;;;;;;;;5032160;28;19969;-63
2023/03/19 07:46:07;;;;;;;;;;;;;;;;;;5035600;28;20379;-64
2023/03/19 07:48:34;;;;;;;;;;;;;;;;;;5022984;28;19928;-63
2023/03/19 07:51:01;;;;;;;;;;;;;;;;;;5031579;28;19940;-64
2023/03/19 07:53:28;;;;;;;;;;;;;;;;;;5038972;28;19960;-63
2023/03/19 07:55:55;;;;;;;;;;;;;;;;;;5034072;28;19925;-64
2023/03/19 07:58:22;;;;;;;;;;;;;;;;;;5032182;28;19921;-65
2023/03/19 08:00:49;;;;;;;;;;;;;;;;;;5034302;28;19925;-65
2023/03/19 08:03:16;;;;;;;;;;;;;;;;;;5027729;28;19925;-63
2023/03/19 08:05:43;;;;;;;;;;;;;;;;;;5021961;28;19983;-63
2023/03/19 08:08:10;;;;;;;;;;;;;;;;;;5022665;28;19942;-64
2023/03/19 08:10:37;;;;;;;;;;;;;;;;;;5027552;28;19975;-64
2023/03/19 08:13:05;;;;;;;;;;;;;;;;;;5031353;28;19921;-63
2023/03/19 08:15:32;;;;;;;;;;;;;;;;;;5046203;28;19921;-63
2023/03/19 08:17:59;;;;;;;;;;;;;;;;;;5034904;28;19962;-63
2023/03/19 08:20:26;;;;;;;;;;;;;;;;;;5022083;28;19960;-63
2023/03/19 08:22:53;;;;;;;;;;;;;;;;;;5035611;28;19927;-63
2023/03/19 08:25:20;;;;;;;;;;;;;;;;;;5038231;28;20006;-63
2023/03/19 08:27:47;;;;;;;;;;;;;;;;;;5028253;28;19957;-64
2023/03/19 08:30:14;;;;;;;;;;;;;;;;;;5028668;28;20416;-64
2023/03/19 08:32:43;;;;;;;;;;;;;;;;;;5041122;28;19982;-64
2023/03/19 08:35:10;;;;;;;;;;;;;;;;;;5023406;28;19954;-63
2023/03/19 08:37:37;;;;;;;;;;;;;;;;;;5039407;28;19925;-63
2023/03/19 08:40:04;;;;;;;;;;;;;;;;;;5050683;28;19960;-63
2023/03/19 08:42:31;;;;;;;;;;;;;;;;;;5032311;28;19954;-64
2023/03/19 08:44:58;;;;;;;;;;;;;;;;;;5027897;28;19953;-63
2023/03/19 08:47:25;;;;;;;;;;;;;;;;;;5013295;28;19976;-64
2023/03/19 08:49:54;;;;;;;1999.90;999.90;;;;;;;;;;5011362;28;20271;-64
2023/03/19 08:52:21;;;;;;;;;;;;;;;;;;5027595;28;20311;-63
2023/03/19 08:54:48;;;;;;;;;;;;;;;;;;5038301;28;19928;-63
2023/03/19 08:57:15;;;;;;;;;;;;;;;;;;5033337;28;20187;-63
2023/03/19 08:59:42;;;;;;;;;;;;;;;;;;5028949;28;20324;-64
2023/03/19 09:02:09;;;;;;;;;;;;;;;;;;5036637;28;19932;-63
2023/03/19 09:04:37;;;;;;;;;;;;;;;;;;5023904;28;19924;-64
2023/03/19 09:07:04;;;;;;;;;;;;;;;;;;5026720;28;19925;-63
2023/03/19 09:09:31;;;;;;;;;;;;;;;;;;5032173;28;20345;-64
2023/03/19 09:11:58;;;;;;;;;;;;;;;;;;5033772;28;19921;-63
2023/03/19 09:14:26;;;;;;;;;;;;;;;;;;5031328;28;19960;-63
2023/03/19 09:16:54;;;;;;;;;;;;;;;;;;5033961;28;19930;-63
2023/03/19 09:19:22;;;;;;;;;;;;;;;;;;5036657;28;19979;-63
2023/03/19 09:21:49;;;;;;;;;;;;;;;;;;5033241;28;19928;-63
2023/03/19 09:24:16;;;;;;;;;;;;;;;;;;5028944;28;19929;-63
2023/03/19 09:26:43;;;;;;;;;;;;;;;;;;5027540;28;19924;-64
2023/03/19 09:29:10;;;;;;;;;;;;;;;;;;5042485;28;19936;-64
2023/03/19 09:31:37;;;;;;;;;;;;;;;;;;5037981;28;19979;-64
2023/03/19 09:34:05;;;;;;;;;;;;;;;;;;5025533;28;20059;-64
2023/03/19 09:36:32;;;;;;;;;;;;;;;;;;5032327;28;20392;-64
2023/03/19 09:38:59;;;;;;;;;;;;;;;;;;5024190;28;19933;-64
2023/03/19 09:41:27;;;;;;;;;;;;;;;;;;5027978;28;19925;-64
2023/03/19 09:43:53;;;;;;;;;;;;;;;;;;5027337;28;19956;-63
2023/03/19 09:46:20;;;;;;;;;;;;;;;;;;5037307;28;20434;-64
2023/03/19 09:48:47;;;;;;;;;;;;;;;;;;5037361;28;20274;-63
2023/03/19 09:51:14;;;;;;;;;;;;;;;;;;5039599;28;20060;-64
2023/03/19 09:53:41;;;;;;;;;;;;;;;;;;5027319;28;19934;-65
2023/03/19 09:56:08;;;;;;;;;;;;;;;;;;5025619;28;20305;-70
2023/03/19 09:58:35;;;;;;;;;;;;;;;;;;5033470;28;19933;-64
2023/03/19 10:01:02;;;;;;;;;;;;;;;;;;5033525;28;19955;-64
2023/03/19 10:03:29;;;;;;;;;;;;;;;;;;5036479;28;19936;-64
2023/03/19 10:05:56;;;;;;;;;;;;;;;;;;5042155;28;19960;-64
2023/03/19 10:08:23;;;;;;;;;;;;;;;;;;5041491;28;20035;-64
2023/03/19 10:10:50;;;;;;;;;;;;;;;;;;5046829;28;19935;-64
2023/03/19 10:13:17;;;;;;;;;;;;;;;;;;5033682;28;19944;-64
2023/03/19 10:15:44;;;;;;;;;;;;;;;;;;5041504;28;20035;-64
2023/03/19 10:18:12;;;;;;;;;;;;;;;;;;5046637;28;20307;-64
2023/03/19 10:20:39;;;;;;;;;;;;;;;;;;5030248;28;19937;-64
2023/03/19 10:23:07;;;;;;;;;;;;;;;;;;5042547;28;19942;-63
2023/03/19 10:25:34;;;;;;;;;;;;;;;;;;5049687;28;19949;-64
2023/03/19 10:28:01;;;;;;;;;;;;;;;;;;5045897;28;20369;-64
2023/03/19 10:30:27;;;;;;;;;;;;;;;;;;5035827;28;19948;-64
2023/03/19 10:32:54;;;;;;;;;;;;;;;;;;5042395;28;20413;-64
2023/03/19 10:35:21;;;;;;;;;;;;;;;;;;5016014;28;19935;-64
2023/03/19 10:37:48;;;;;;;;;;;;;;;;;;5031125;28;19970;-64
2023/03/19 10:40:15;;;;;;;;;;;;;;;;;;5036057;28;20029;-64
2023/03/19 10:42:42;;;;;;;;;;;;;;;;;;5043383;28;20313;-64
2023/03/19 10:45:09;;;;;;;;;;;;;;;;;;5047304;28;19957;-64
2023/03/19 10:47:36;;;;;;;;;;;;;;;;;;5041325;28;20039;-64
2023/03/19 10:50:03;;;;;;;;;;;;;;;;;;5035482;28;19935;-64
2023/03/19 10:52:30;;;;;;;;;;;;;;;;;;5046403;28;19947;-63
2023/03/19 10:54:57;;;;;;;;;;;;;;;;;;5050302;28;19941;-63
2023/03/19 10:57:24;;;;;;;;;;;;;;;;;;5046670;28;19941;-63
2023/03/19 10:59:51;;;;;;;;;;;;;;;;;;5050887;28;20332;-63
2023/03/19 11:02:18;;;;;;;;;;;;;;;;;;5066114;22;19958;-63
2023/03/19 11:04:45;;;;;;;;;;;;;;;;;;5053929;28;20002;-63
2023/03/19 11:07:12;;;;;;;;;;;;;;;;;;5048385;28;19974;-63
2023/03/19 11:09:39;;;;;;;;;;;;;;;;;;5054750;28;19936;-63
2023/03/19 11:12:06;;;;;;;;;;;;;;;;;;5051891;28;20041;-63
2023/03/19 11:14:33;;;;;;;;;;;;;;;;;;5051549;28;19943;-63
2023/03/19 11:17:00;;;;;;;;;;;;;;;;;;5051595;28;19940;-64
2023/03/19 11:19:28;;;;;;;;;;;;;;;;;;5053101;28;19969;-64
2023/03/19 11:21:55;;;;;;;;;;;;;;;;;;5042830;28;19973;-64
2023/03/19 11:24:22;;;;;;;;;;;;;;;;;;5049249;28;20273;-64
2023/03/19 11:26:49;;;;;;;;;;;;;;;;;;5054408;28;19941;-64
2023/03/19 11:29:16;;;;;;;;;;;;;;;;;;5053205;28;19937;-64
2023/03/19 11:31:43;;;;;;;;;;;;;;;;;;5053211;28;20060;-64
2023/03/19 11:34:10;;;;;;;;;;;;;;;;;;5051534;28;19924;-65
2023/03/19 11:36:37;;;;;;;;;;;;;;;;;;5054201;28;20313;-64
2023/03/19 11:39:04;;;;;;;;;;;;;;;;;;5050934;28;19936;-64
2023/03/19 11:41:31;;;;;;;;;;;;;;;;;;5053843;28;20319;-65
2023/03/19 11:43:58;;;;;;;;;;;;;;;;;;5051669;28;19938;-64
2023/03/19 11:46:25;;;;;;;;;;;;;;;;;;5053178;28;19936;-65
2023/03/19 11:48:51;;;;;;;;;;;;;;;;;;5053029;28;19935;-64
2023/03/19 11:51:18;;;;;;;;;;;;;;;;;;5053583;28;19937;-64
2023/03/19 11:53:45;;;;;;;;;;;;;;;;;;5050753;28;20373;-64
2023/03/19 11:56:13;;;;;;;;;;;;;;;;;;5053986;28;19935;-65
2023/03/19 11:58:39;;;;;;;;;;;;;;;;;;5052674;28;20316;-64
2023/03/19 12:01:06;;;;;;;;;;;;;;;;;;5052481;28;19938;-64
2023/03/19 12:03:33;;;;;;;;;;;;;;;;;;5053178;28;19936;-64
2023/03/19 12:06:00;;;;;;;;;;;;;;;;;;5053737;28;20037;-64
2023/03/19 12:08:27;;;;;;;;;;;;;;;;;;5052203;28;19958;-64
2023/03/19 12:10:54;;;;;;;;;;;;;;;;;;5051535;28;20021;-58
2023/03/19 12:13:21;;;;;;;;;;;;;;;;;;5052311;28;19957;-58
2023/03/19 12:15:48;;;;;;;;;;;;;;;;;;5052660;28;19991;-58
2023/03/19 12:18:15;;;;;;;;;;;;;;;;;;5051817;28;19945;-58
2023/03/19 12:20:42;;;;;;;;;;;;;;;;;;5053668;28;19946;-58
2023/03/19 12:23:09;;;;;;;;;;;;;;;;;;5047609;28;19956;-58
2023/03/19 12:25:36;;;;;;;;;;;;;;;;;;5050242;28;19949;-57
2023/03/19 12:28:03;;;;;;;;;;;;;;;;;;5049262;28;20290;-58
2023/03/19 12:30:30;;;;;;;;;;;;;;;;;;5053082;28;20213;-58
2023/03/19 12:32:57;;;;;;;;;;;;;;;;;;5049817;28;20468;-57
2023/03/19 12:35:24;;;;;;;;;;;;;;;;;;5051757;28;20119;-59
2023/03/19 12:37:51;;;;;;;;;;;;;;;;;;5044037;28;19921;-58
2023/03/19 12:40:18;;;;;;;;;;;;;;;;;;5052925;28;20313;-58
2023/03/19 12:42:45;;;;;;;;;;;;;;;;;;5045647;28;20367;-58
2023/03/19 12:45:12;;;;;;;;;;;;;;;;;;5050602;28;19950;-59
2023/03/19 12:47:39;;;;;;;;;;;;;;;;;;5049975;28;19934;-59
2023/03/19 12:50:06;;;;;;;;;;;;;;;;;;5050110;28;20441;-60
2023/03/19 12:52:33;;;;;;;;;;;;;;;;;;5051267;28;19958;-59
2023/03/19 12:55:04;;;;;;;1999.90;999.90;;;;;;;;;;5050823;28;20400;-60
2023/03/19 12:57:35;;;;;;;1999.90;999.90;;;;;;;;;;5043725;28;20458;-59
2023/03/19 13:00:05;;;;;;;1999.90;999.90;;;;;;;;;;5049420;28;20199;-60
2023/03/19 13:02:37;;;;;;;1999.90;999.90;;;;;;;;;;5048462;28;20594;-59
2023/03/19 13:05:04;;;;;;;;;;;;;;;;;;5045336;28;20117;-59
2023/03/19 13:07:31;;;;;;;;;;;;;;;;;;5036874;28;20391;-59
2023/03/19 13:09:58;;;;;;;;;;;;;;;;;;5049205;28;20443;-59
2023/03/19 13:12:28;;;;;;;1999.90;999.90;;;;;;;;;;5045595;28;20827;-59
2023/03/19 13:14:58;;;;;;;1999.90;999.90;;;;;;;;;;5047805;28;20199;-59
2023/03/19 13:17:28;;;;;;;1999.90;999.90;;;;;;;;;;5047974;28;20215;-59
2023/03/19 13:19:56;;;;;;;1999.90;999.90;;;;;;;;;;5049582;28;20214;-60
2023/03/19 13:22:25;;;;;;;1999.90;999.90;;;;;;;;;;5050391;28;20210;-60
2023/03/19 13:24:53;;;;;;;1999.90;999.90;;;;;;;;;;5050148;28;20225;-60
2023/03/19 13:27:21;;;;;;;1999.90;999.90;;;;;;;;;;5051509;28;20231;-60
2023/03/19 13:30:08;;;;;;;1999.90;999.90;;;;;;;;;;5042013;28;20647;-60
2023/03/19 13:32:37;;;;;;;1999.90;999.90;;;;;;;;;;5031311;28;20305;-60
2023/03/19 13:35:25;;;;;;;1999.90;999.90;;;;;;;;;;5048134;28;20201;-61
2023/03/19 13:37:56;;;;;;;1999.90;999.90;;;;;;;;;;5042371;28;20097;-61
2023/03/19 13:40:23;;;;;;;;;;;;;;;;;;5048619;28;20463;-60
2023/03/19 13:42:56;;;;;;;1999.90;999.90;;;;;;;;;;5047498;28;20454;-61
2023/03/19 13:45:30;;;;;;;1999.90;999.90;;;;;;;;;;5046856;28;20214;-60
2023/03/19 13:47:58;;;;;;;1999.90;999.90;;;;;;;;;;5033051;28;20124;-60
2023/03/19 13:50:27;;;;;;;1999.90;999.90;;;;;;;;;;5049867;28;20507;-60
2023/03/19 13:52:56;;;;;;;1999.90;999.90;;;;;;;;;;5048958;28;20488;-60
2023/03/19 13:55:45;;;;;;;1999.90;999.90;;;;;;;;;;5040105;28;20510;-60
2023/03/19 13:58:48;;;;;;;1999.90;999.90;;;;;;;;;;5042176;28;20215;-60
2023/03/19 14:01:06;;;;;;;1999.90;999.90;;;;;;;;;;5040345;28;20300;-60
2023/03/19 14:03:34;;;;;;;1999.90;999.90;;;;;;;;;;5050326;28;20212;-60
2023/03/19 14:06:01;;;;;;;1999.90;999.90;;;;;;;;;;5046333;28;20531;-60
2023/03/19 14:08:30;;;;;;;1999.90;999.90;;;;;;;;;;5046626;28;20209;-59
2023/03/19 14:10:58;;;;;;;1999.90;999.90;;;;;;;;;;5048890;28;20206;-59
2023/03/19 14:13:25;;;;;;;;;;;;;;;;;;5049639;28;20343;-60
2023/03/19 14:15:52;;;;;;;;;;;;;;;;;;5051170;28;20299;-59
2023/03/19 14:18:19;;;;;;;;;;;;;;;;;;5047026;28;19997;-65
2023/03/19 14:20:46;;;;;;;;;;;;;;;;;;5046517;28;20458;-59
2023/03/19 14:23:15;;;;;;;;;;;;;;;;;;5049103;28;19960;-60
2023/03/19 14:25:42;;;;;;;;;;;;;;;;;;5051803;28;19963;-60
2023/03/19 14:28:09;;;;;;;;;;;;;;;;;;5049061;28;19959;-59
2023/03/19 14:30:37;;;;;;;;;;;;;;;;;;5050557;28;20028;-60
2023/03/19 14:33:05;;;;;;;;;;;;;;;;;;5048788;28;20024;-60
2023/03/19 14:35:32;;;;;;;;;;;;;;;;;;5040161;28;19937;-59
2023/03/19 14:37:59;;;;;;;;;;;;;;;;;;5041802;28;19943;-59
2023/03/19 14:40:26;;;;;;;;;;;;;;;;;;5051680;28;19932;-60
2023/03/19 14:42:53;;;;;;;;;;;;;;;;;;5049755;28;19921;-59
2023/03/19 14:45:20;;;;;;;;;;;;;;;;;;5049883;28;20506;-59
2023/03/19 14:47:47;;;;;;;;;;;;;;;;;;5049604;28;20007;-60
2023/03/19 14:50:14;;;;;;;;;;;;;;;;;;5047858;28;19928;-60
2023/03/19 14:52:41;;;;;;;;;;;;;;;;;;5052726;28;19949;-59
2023/03/19 14:55:08;;;;;;;;;;;;;;;;;;5051052;28;19936;-59
2023/03/19 14:57:35;;;;;;;;;;;;;;;;;;5054903;28;19920;-59
2023/03/19 15:00:03;;;;;;;;;;;;;;;;;;5054390;28;20292;-59
2023/03/19 15:02:30;;;;;;;;;;;;;;;;;;5053003;28;20484;-60
2023/03/19 15:04:57;;;;;;;;;;;;;;;;;;5050539;28;20385;-60
2023/03/19 15:07:24;;;;;;;;;;;;;;;;;;5054885;28;19921;-59
2023/03/19 15:09:51;;;;;;;;;;;;;;;;;;5044433;28;19933;-60
2023/03/19 15:12:17;;;;;;;;;;;;;;;;;;5039490;28;20289;-60
2023/03/19 15:14:44;;;;;;;;;;;;;;;;;;5047789;28;19928;-59
2023/03/19 15:17:11;;;;;;;;;;;;;;;;;;5054327;28;20015;-60
2023/03/19 15:19:40;;;;;;;1999.90;999.90;;;;;;;;;;5047124;28;20432;-60
2023/03/19 15:22:07;;;;;;;;;;;;;;;;;;5051803;28;20306;-59
2023/03/19 15:24:35;;;;;;;;;;;;;;;;;;5050227;28;20428;-59
2023/03/19 15:27:02;;;;;;;1999.90;999.90;;;;;;;;;;5053282;28;20889;-59
2023/03/19 15:29:29;;;;;;;;;;;;;;;;;;5053456;28;20329;-60
2023/03/19 15:31:56;;;;;;;;;;;;;;;;;;5053867;28;19925;-59
2023/03/19 15:34:23;;;;;;;;;;;;;;;;;;5053450;28;20436;-59
2023/03/19 15:36:53;;;;;;;1999.90;999.90;;;;;;;;;;5052402;28;20868;-59
2023/03/19 15:39:20;;;;;;;;;;;;;;;;;;5053711;28;20421;-61
2023/03/19 15:41:47;;;;;;;;;;;;;;;;;;5053018;28;19921;-61
2023/03/19 15:44:17;;;;;;;1999.90;999.90;;;;;;;;;;5051440;28;20441;-59
2023/03/19 15:46:45;;;;;;;1999.90;999.90;;;;;;;;;;5053056;28;20210;-59
2023/03/19 15:49:13;;;;;;;1999.90;999.90;;;;;;;;;;5052249;28;20717;-59
2023/03/19 15:51:40;;;;;;;1999.90;999.90;;;;;;;;;;5047744;28;20311;-59
2023/03/19 15:54:07;;;;;;;;;;;;;;;;;;5038977;28;20191;-59
2023/03/19 15:56:34;;;;;;;;;;;;;;;;;;5052173;28;20477;-59
2023/03/19 15:59:01;;;;;;;;;;;;;;;;;;5052430;28;20279;-59
2023/03/19 16:01:28;;;;;;;;;;;;;;;;;;5051207;28;19953;-59
2023/03/19 16:03:55;;;;;;;;;;;;;;;;;;5053666;28;19939;-61
2023/03/19 16:06:22;;;;;;;;;;;;;;;;;;5053298;28;19958;-60
2023/03/19 16:08:49;;;;;;;;;;;;;;;;;;5052791;28;20352;-60
2023/03/19 16:11:16;;;;;;;;;;;;;;;;;;5052102;28;19942;-59
2023/03/19 16:13:43;;;;;;;;;;;;;;;;;;5052439;28;19938;-59
2023/03/19 16:16:10;;;;;;;;;;;;;;;;;;5049751;28;19939;-60
2023/03/19 16:18:37;;;;;;;;;;;;;;;;;;5053538;28;20386;-59